Time;durP1;ratioP1;P1;durP2;ratioP2;P2;SDS_P1;SDS_P2;PMS_P1;PMS_P2;Temp;Humidity;BMP_temperature;BMP_pressure;BME280_temperature;BME280_humidity;BME280_pressure;Samples;Min_cycle;Max_cycle;Signal;HPM_P1;HPM_P2
2023/10/11 00:02:56;;;;;;;10.82;4.47;;;;;;;;;;4983349;28;20085;-75
2023/10/11 00:05:40;;;;;;;7.40;3.95;;;;;;;;;;4999641;28;20371;-76
2023/10/11 00:08:08;;;;;;;10.73;4.18;;;;;;;;;;5002994;28;20030;-76
2023/10/11 00:10:43;;;;;;;7.47;3.72;;;;;;;;;;5006266;28;20033;-76
2023/10/11 00:13:12;;;;;;;7.88;3.63;;;;;;;;;;4957617;28;20585;-75
2023/10/11 00:15:37;;;;;;;6.43;3.97;;;;;;;;;;4999193;28;20117;-75
2023/10/11 00:18:03;;;;;;;8.55;3.60;;;;;;;;;;4989912;28;20154;-75
2023/10/11 00:20:34;;;;;;;13.65;4.35;;;;;;;;;;4996561;28;20046;-76
2023/10/11 00:22:59;;;;;;;7.97;3.70;;;;;;;;;;4994971;28;20037;-74
2023/10/11 00:25:25;;;;;;;6.15;3.22;;;;;;;;;;5009687;28;20117;-75
2023/10/11 00:27:58;;;;;;;8.30;4.03;;;;;;;;;;4997461;28;20136;-75
2023/10/11 00:30:29;;;;;;;9.77;4.00;;;;;;;;;;4987577;28;20042;-76
2023/10/11 00:32:55;;;;;;;8.07;4.03;;;;;;;;;;5000690;28;20120;-76
2023/10/11 00:35:24;;;;;;;7.68;3.85;;;;;;;;;;4995589;28;20584;-76
2023/10/11 00:37:54;;;;;;;8.85;3.47;;;;;;;;;;4995229;28;20038;-76
2023/10/11 00:40:31;;;;;;;6.05;3.22;;;;;;;;;;4985120;28;20081;-76
2023/10/11 00:42:57;;;;;;;9.07;3.40;;;;;;;;;;5016490;28;20038;-73
2023/10/11 00:45:30;;;;;;;7.22;3.70;;;;;;;;;;5010419;28;20524;-76
2023/10/11 00:47:58;;;;;;;6.07;3.40;;;;;;;;;;5008796;28;20441;-72
2023/10/11 00:50:24;;;;;;;7.40;3.42;;;;;;;;;;5014375;28;20613;-75
2023/10/11 00:52:50;;;;;;;6.72;3.90;;;;;;;;;;4988854;28;20030;-76
2023/10/11 00:55:23;;;;;;;8.93;3.53;;;;;;;;;;4996574;28;20418;-73
2023/10/11 00:57:49;;;;;;;7.00;3.72;;;;;;;;;;5005388;28;20049;-74
2023/10/11 01:00:23;;;;;;;10.45;3.63;;;;;;;;;;4996314;28;20138;-76
2023/10/11 01:02:50;;;;;;;6.93;3.75;;;;;;;;;;4970755;28;20038;-76
2023/10/11 01:05:19;;;;;;;7.50;4.03;;;;;;;;;;4981243;28;20046;-76
2023/10/11 01:07:45;;;;;;;8.48;3.45;;;;;;;;;;4991165;28;20036;-76
2023/10/11 01:10:11;;;;;;;10.65;4.50;;;;;;;;;;4997593;28;20080;-76
2023/10/11 01:12:39;;;;;;;6.15;3.30;;;;;;;;;;5011983;28;20045;-76
2023/10/11 01:15:15;;;;;;;7.90;3.78;;;;;;;;;;5011805;28;20069;-75
2023/10/11 01:17:40;;;;;;;6.60;3.72;;;;;;;;;;5007202;28;20069;-74
2023/10/11 01:20:13;;;;;;;7.68;3.40;;;;;;;;;;5003830;28;20070;-72
2023/10/11 01:22:40;;;;;;;10.68;4.05;;;;;;;;;;4980622;28;20581;-73
2023/10/11 01:25:06;;;;;;;8.00;3.50;;;;;;;;;;4979794;28;20044;-76
2023/10/11 01:27:31;;;;;;;9.27;4.53;;;;;;;;;;5009909;28;20037;-74
2023/10/11 01:29:59;;;;;;;8.60;3.83;;;;;;;;;;5006488;28;20041;-73
2023/10/11 01:32:25;;;;;;;8.00;3.90;;;;;;;;;;4998827;28;20113;-73
2023/10/11 01:34:51;;;;;;;7.38;3.55;;;;;;;;;;5005121;28;20139;-75
2023/10/11 01:37:20;;;;;;;6.90;3.33;;;;;;;;;;5007962;28;20623;-76
2023/10/11 01:39:46;;;;;;;5.68;3.00;;;;;;;;;;4994405;28;20522;-73
2023/10/11 01:42:11;;;;;;;7.60;3.50;;;;;;;;;;5010798;28;20297;-75
2023/10/11 01:44:38;;;;;;;9.85;3.72;;;;;;;;;;5000014;28;20057;-75
2023/10/11 01:47:05;;;;;;;9.68;4.30;;;;;;;;;;4992014;28;20495;-76
2023/10/11 01:49:37;;;;;;;7.57;4.03;;;;;;;;;;5007832;28;20041;-73
2023/10/11 01:52:06;;;;;;;5.88;3.38;;;;;;;;;;4993219;28;20046;-73
2023/10/11 01:54:34;;;;;;;8.55;4.32;;;;;;;;;;4979729;28;20030;-75
2023/10/11 01:57:01;;;;;;;8.02;3.90;;;;;;;;;;4998415;28;20026;-75
2023/10/11 01:59:27;;;;;;;7.40;3.60;;;;;;;;;;4983479;28;20046;-76
2023/10/11 02:01:58;;;;;;;7.15;3.67;;;;;;;;;;5000894;28;20104;-75
2023/10/11 02:04:25;;;;;;;7.00;3.58;;;;;;;;;;4997215;28;20061;-75
2023/10/11 02:06:51;;;;;;;7.10;3.33;;;;;;;;;;5012168;28;20045;-75
2023/10/11 02:09:22;;;;;;;6.45;3.38;;;;;;;;;;4999032;28;20421;-73
2023/10/11 02:11:52;;;;;;;7.88;3.30;;;;;;;;;;5004664;28;20136;-76
2023/10/11 02:14:19;;;;;;;9.40;3.88;;;;;;;;;;5004276;28;20038;-76
2023/10/11 02:16:44;;;;;;;6.15;3.47;;;;;;;;;;4995276;28;20037;-73
2023/10/11 02:19:15;;;;;;;8.02;3.65;;;;;;;;;;4997686;28;20038;-76
2023/10/11 02:21:43;;;;;;;11.07;3.85;;;;;;;;;;4981391;28;20030;-75
2023/10/11 02:24:10;;;;;;;7.10;3.88;;;;;;;;;;4983699;28;20053;-76
2023/10/11 02:26:35;;;;;;;5.78;3.05;;;;;;;;;;4994250;28;20709;-76
2023/10/11 02:29:01;;;;;;;5.95;3.63;;;;;;;;;;5009120;28;20029;-75
2023/10/11 02:31:31;;;;;;;7.85;3.60;;;;;;;;;;5009306;28;20040;-75
2023/10/11 02:34:07;;;;;;;7.55;3.72;;;;;;;;;;5024666;28;20045;-76
2023/10/11 02:36:35;;;;;;;9.65;3.40;;;;;;;;;;4988778;28;20214;-76
2023/10/11 02:39:05;;;;;;;7.95;3.90;;;;;;;;;;4965892;28;20087;-75
2023/10/11 02:41:31;;;;;;;7.78;3.83;;;;;;;;;;4992315;28;20045;-73
2023/10/11 02:43:57;;;;;;;4.65;3.00;;;;;;;;;;4998528;28;20434;-76
2023/10/11 02:46:24;;;;;;;8.43;3.75;;;;;;;;;;4991676;28;20096;-76
2023/10/11 02:48:54;;;;;;;5.95;4.10;;;;;;;;;;5003537;28;20053;-73
2023/10/11 02:51:24;;;;;;;5.03;2.95;;;;;;;;;;4975742;28;20033;-76
2023/10/11 02:53:52;;;;;;;4.55;2.88;;;;;;;;;;5010744;28;20044;-76
2023/10/11 02:56:18;;;;;;;7.47;2.95;;;;;;;;;;4996451;28;20048;-76
2023/10/11 02:58:43;;;;;;;6.25;3.35;;;;;;;;;;4991272;28;20045;-75
2023/10/11 03:01:15;;;;;;;9.05;3.65;;;;;;;;;;5007258;28;20073;-73
2023/10/11 03:03:43;;;;;;;6.93;3.17;;;;;;;;;;4991471;28;20057;-73
2023/10/11 03:06:10;;;;;;;5.15;3.10;;;;;;;;;;4989989;28;20530;-74
2023/10/11 03:08:43;;;;;;;8.63;3.60;;;;;;;;;;4989544;28;20034;-76
2023/10/11 03:11:15;;;;;;;7.97;4.03;;;;;;;;;;4994891;28;20049;-76
2023/10/11 03:13:41;;;;;;;5.85;2.95;;;;;;;;;;4987577;28;20040;-76
2023/10/11 03:16:12;;;;;;;7.22;3.63;;;;;;;;;;4987165;28;20034;-76
2023/10/11 03:18:39;;;;;;;5.63;2.78;;;;;;;;;;4990878;28;20044;-76
2023/10/11 03:21:17;;;;;;;8.45;3.70;;;;;;;;;;5007740;28;20102;-74
2023/10/11 03:23:48;;;;;;;3.72;2.95;;;;;;;;;;5007061;28;20037;-72
2023/10/11 03:26:31;;;;;;;7.90;3.25;;;;;;;;;;5005924;28;20579;-74
2023/10/11 03:29:03;;;;;;;8.18;3.28;;;;;;;;;;5002191;28;20541;-75
2023/10/11 03:31:40;;;;;;;8.85;3.50;;;;;;;;;;4983806;28;20180;-76
2023/10/11 03:34:14;;;;;;;7.72;3.47;;;;;;;;;;4993266;28;20034;-76
2023/10/11 03:36:49;;;;;;;4.95;2.83;;;;;;;;;;5006385;28;20666;-74
2023/10/11 03:39:40;;;;;;;5.47;3.55;;;;;;;;;;4981139;28;20093;-75
2023/10/11 03:42:07;;;;;;;4.57;3.10;;;;;;;;;;4987600;28;20037;-73
2023/10/11 03:44:36;;;;;;;6.72;3.28;;;;;;;;;;4973697;28;20516;-74
2023/10/11 03:47:07;;;;;;;8.73;3.50;;;;;;;;;;4987186;28;20135;-76
2023/10/11 03:49:38;;;;;;;;;;;;;;;;;;5000391;28;20065;-75
2023/10/11 03:52:16;;;;;;;7.22;3.45;;;;;;;;;;5012084;28;19975;-75
2023/10/11 03:54:42;;;;;;;6.75;3.15;;;;;;;;;;5008667;28;20041;-75
2023/10/11 03:57:07;;;;;;;6.53;2.90;;;;;;;;;;4999202;28;20030;-75
2023/10/11 03:59:38;;;;;;;6.07;3.13;;;;;;;;;;4975213;28;20117;-75
2023/10/11 04:02:04;;;;;;;8.25;3.30;;;;;;;;;;4998020;28;20072;-75
2023/10/11 04:04:30;;;;;;;7.40;3.63;;;;;;;;;;4993541;28;20056;-72
2023/10/11 04:07:01;;;;;;;8.43;3.67;;;;;;;;;;5003365;28;20042;-75
2023/10/11 04:09:33;;;;;;;8.50;3.38;;;;;;;;;;5007429;28;20030;-74
2023/10/11 04:12:00;;;;;;;4.55;3.00;;;;;;;;;;5007327;28;20037;-74
2023/10/11 04:14:39;;;;;;;5.30;3.00;;;;;;;;;;5016993;28;20397;-75
2023/10/11 04:22:53;;;;;;;4.03;2.83;;;;;;;;;;4976100;28;20040;-75
2023/10/11 04:25:22;;;;;;;6.28;3.30;;;;;;;;;;5003121;28;20486;-75
2023/10/11 04:27:54;;;;;;;5.32;3.20;;;;;;;;;;4983478;28;20037;-73
2023/10/11 04:33:10;;;;;;;7.20;3.33;;;;;;;;;;4985038;28;20104;-76
2023/10/11 04:35:42;;;;;;;6.68;3.40;;;;;;;;;;5012251;28;20033;-76
2023/10/11 04:38:10;;;;;;;6.38;2.92;;;;;;;;;;5007890;28;20497;-76
2023/10/11 04:43:20;;;;;;;5.70;2.97;;;;;;;;;;5029761;28;20129;-74
2023/10/11 04:45:51;;;;;;;7.50;3.55;;;;;;;;;;4978519;28;20125;-75
2023/10/11 04:48:32;;;;;;;7.00;3.03;;;;;;;;;;5000335;28;20034;-75
2023/10/11 04:53:56;;;;;;;4.20;2.55;;;;;;;;;;4990064;28;20108;-76
2023/10/11 04:59:20;;;;;;;6.78;2.88;;;;;;;;;;4991182;28;20052;-75
2023/10/11 05:04:14;;;;;;;5.20;2.97;;;;;;;;;;5003532;28;20745;-75
2023/10/11 05:06:44;;;;;;;6.85;3.30;;;;;;;;;;4995525;28;20037;-73
2023/10/11 05:11:44;;;;;;;;;;;;;;;;;;4994828;28;20179;-76
2023/10/11 05:14:26;;;;;;;5.57;3.03;;;;;;;;;;4984299;28;20389;-76
2023/10/11 05:16:58;;;;;;;5.45;2.90;;;;;;;;;;4982143;28;20132;-77
2023/10/11 05:19:28;;;;;;;5.35;3.10;;;;;;;;;;5009813;28;20817;-78
2023/10/11 05:21:54;;;;;;;7.90;3.40;;;;;;;;;;4995912;28;20068;-76
2023/10/11 05:24:43;;;;;;;7.05;3.60;;;;;;;;;;4993261;28;20080;-77
2023/10/11 05:27:35;;;;;;;5.93;2.75;;;;;;;;;;4980256;28;20052;-75
2023/10/11 05:32:33;;;;;;;6.43;3.03;;;;;;;;;;5003661;28;20120;-76
2023/10/11 05:35:19;;;;;;;7.22;3.00;;;;;;;;;;4994917;28;20038;-75
2023/10/11 05:51:29;;;;;;;6.90;3.10;;;;;;;;;;4992686;28;20045;-75
2023/10/11 05:53:55;;;;;;;9.38;3.17;;;;;;;;;;4988867;28;20108;-75
2023/10/11 05:56:21;;;;;;;5.75;3.35;;;;;;;;;;4988947;28;20142;-76
2023/10/11 05:58:51;;;;;;;7.13;2.92;;;;;;;;;;4992528;28;20057;-76
2023/10/11 06:01:19;;;;;;;5.88;2.80;;;;;;;;;;4987878;28;20100;-75
2023/10/11 06:03:48;;;;;;;6.45;3.30;;;;;;;;;;5011767;28;20180;-74
2023/10/11 06:08:59;;;;;;;7.18;3.42;;;;;;;;;;4996705;28;20113;-76
2023/10/11 06:11:29;;;;;;;5.82;3.47;;;;;;;;;;4999263;28;20518;-76
2023/10/11 06:14:05;;;;;;;7.75;2.80;;;;;;;;;;5001755;28;20044;-73
2023/10/11 06:16:37;;;;;;;4.32;3.15;;;;;;;;;;5015851;28;22054;-75
2023/10/11 06:19:26;;;;;;;5.55;3.33;;;;;;;;;;4993400;28;20121;-76
2023/10/11 06:21:59;;;;;;;4.30;2.78;;;;;;;;;;4978052;28;20056;-76
2023/10/11 06:24:34;;;;;;;6.55;3.50;;;;;;;;;;4981516;28;20117;-76
2023/10/11 06:29:37;;;;;;;5.43;2.75;;;;;;;;;;5003102;28;20097;-74
2023/10/11 06:32:10;;;;;;;6.78;2.97;;;;;;;;;;5000457;28;20041;-75
2023/10/11 06:34:36;;;;;;;5.30;2.92;;;;;;;;;;5000702;28;20029;-74
2023/10/11 06:37:02;;;;;;;7.03;2.92;;;;;;;;;;4994416;28;20481;-75
2023/10/11 06:39:34;;;;;;;4.90;3.10;;;;;;;;;;5017467;28;20294;-75
2023/10/11 06:42:12;;;;;;;8.50;3.47;;;;;;;;;;4996943;28;20383;-75
2023/10/11 06:44:37;;;;;;;5.85;2.60;;;;;;;;;;4994625;28;20466;-76
2023/10/11 06:47:03;;;;;;;8.70;3.47;;;;;;;;;;4998439;28;20037;-76
2023/10/11 06:49:32;;;;;;;7.43;2.80;;;;;;;;;;4993007;28;20053;-73
2023/10/11 06:52:01;;;;;;;4.93;2.55;;;;;;;;;;4994920;28;20038;-73
2023/10/11 06:54:32;;;;;;;4.90;3.10;;;;;;;;;;5003070;28;20769;-76
2023/10/11 06:56:57;;;;;;;9.70;3.78;;;;;;;;;;4997142;28;20112;-74
2023/10/11 06:59:23;;;;;;;6.32;3.53;;;;;;;;;;5003097;28;20185;-75
2023/10/11 07:01:48;;;;;;;7.65;3.08;;;;;;;;;;4978702;28;20112;-76
2023/10/11 07:04:18;;;;;;;6.32;2.92;;;;;;;;;;5005562;28;20491;-76
2023/10/11 07:06:46;;;;;;;6.30;3.10;;;;;;;;;;5006106;28;20084;-74
2023/10/11 07:09:20;;;;;;;4.78;2.72;;;;;;;;;;4991341;28;20156;-73
2023/10/11 07:14:30;;;;;;;7.45;3.08;;;;;;;;;;4970725;28;20104;-74
2023/10/11 07:16:55;;;;;;;5.00;2.78;;;;;;;;;;5007593;28;20049;-76
2023/10/11 07:19:20;;;;;;;6.90;2.90;;;;;;;;;;5010976;28;20510;-76
2023/10/11 07:26:56;;;;;;;7.60;3.20;;;;;;;;;;4992712;28;20173;-75
2023/10/11 07:29:22;;;;;;;4.85;2.70;;;;;;;;;;4989149;28;20117;-75
2023/10/11 07:31:51;;;;;;;5.68;3.17;;;;;;;;;;4984500;28;20081;-75
2023/10/11 07:34:18;;;;;;;5.25;2.67;;;;;;;;;;4994566;28;20066;-75
2023/10/11 07:36:45;;;;;;;5.65;2.85;;;;;;;;;;5009291;28;20124;-72
2023/10/11 07:39:15;;;;;;;6.03;2.72;;;;;;;;;;4965753;28;20044;-75
2023/10/11 07:41:44;;;;;;;5.80;3.45;;;;;;;;;;4989260;28;20402;-75
2023/10/11 07:44:11;;;;;;;6.80;3.20;;;;;;;;;;4998782;28;20037;-74
2023/10/11 07:46:40;;;;;;;4.93;2.80;;;;;;;;;;5004465;28;20204;-76
2023/10/11 07:49:06;;;;;;;5.35;2.80;;;;;;;;;;5009586;28;20037;-76
2023/10/11 07:51:39;;;;;;;3.92;2.55;;;;;;;;;;5001720;28;20107;-74
2023/10/11 07:54:08;;;;;;;10.30;3.78;;;;;;;;;;5009222;28;20038;-76
2023/10/11 07:56:36;;;;;;;6.80;2.70;;;;;;;;;;5011187;28;20510;-76
2023/10/11 07:59:08;;;;;;;6.18;3.03;;;;;;;;;;5009458;28;20038;-74
2023/10/11 08:01:42;;;;;;;5.28;3.25;;;;;;;;;;5007157;28;20080;-74
2023/10/11 08:04:18;;;;;;;4.45;2.60;;;;;;;;;;5000356;28;20042;-73
2023/10/11 08:06:44;;;;;;;4.07;2.42;;;;;;;;;;5009567;28;20128;-76
2023/10/11 08:09:18;;;;;;;8.25;3.85;;;;;;;;;;5006197;28;20046;-76
2023/10/11 08:11:56;;;;;;;9.05;3.20;;;;;;;;;;5017602;28;20029;-75
2023/10/11 08:14:28;;;;;;;4.75;2.65;;;;;;;;;;5012115;28;20155;-76
2023/10/11 08:16:57;;;;;;;5.50;2.90;;;;;;;;;;4970547;28;20710;-73
2023/10/11 08:19:23;;;;;;;6.03;2.67;;;;;;;;;;4992279;28;20038;-76
2023/10/11 08:21:54;;;;;;;5.97;2.70;;;;;;;;;;5004541;28;20056;-74
2023/10/11 08:24:27;;;;;;;6.82;2.85;;;;;;;;;;5012688;28;20040;-74
2023/10/11 08:26:57;;;;;;;4.03;2.45;;;;;;;;;;4995593;28;20055;-75
2023/10/11 08:29:30;;;;;;;5.07;2.55;;;;;;;;;;5008609;28;20053;-76
2023/10/11 08:31:57;;;;;;;4.65;2.20;;;;;;;;;;4999437;28;20056;-76
2023/10/11 08:34:25;;;;;;;8.05;2.85;;;;;;;;;;5022992;28;20046;-74
2023/10/11 08:36:55;;;;;;;7.05;3.00;;;;;;;;;;5017961;28;20431;-74
2023/10/11 08:39:44;;;;;;;6.97;3.28;;;;;;;;;;5024561;22;20273;-77
2023/10/11 08:42:12;;;;;;;3.88;2.25;;;;;;;;;;5004075;28;20194;-77
2023/10/11 08:44:40;;;;;;;4.43;2.65;;;;;;;;;;5052360;28;20093;-77
2023/10/11 08:47:06;;;;;;;10.10;2.47;;;;;;;;;;5029179;28;20237;-77
2023/10/11 08:49:35;;;;;;;5.43;2.38;;;;;;;;;;5051773;28;20524;-77
2023/10/11 08:52:00;;;;;;;6.75;2.78;;;;;;;;;;5047201;28;20254;-77
2023/10/11 08:54:30;;;;;;;7.20;2.63;;;;;;;;;;5041515;28;20062;-77
2023/10/11 08:56:57;;;;;;;13.45;2.83;;;;;;;;;;5041672;28;20045;-77
2023/10/11 08:59:25;;;;;;;5.97;3.15;;;;;;;;;;5046366;28;20037;-77
2023/10/11 09:01:59;;;;;;;6.35;2.42;;;;;;;;;;5042764;28;20036;-77
2023/10/11 09:04:27;;;;;;;4.80;2.92;;;;;;;;;;5045205;28;20049;-77
2023/10/11 09:06:57;;;;;;;7.40;3.50;;;;;;;;;;5039124;28;20569;-77
2023/10/11 09:09:39;;;;;;;6.53;2.90;;;;;;;;;;5033763;28;20045;-77
2023/10/11 09:12:23;;;;;;;6.00;2.70;;;;;;;;;;5041700;28;20056;-76
2023/10/11 09:15:00;;;;;;;5.60;2.70;;;;;;;;;;5047327;28;20304;-77
2023/10/11 09:17:31;;;;;;;5.53;2.47;;;;;;;;;;5034720;28;20053;-77
2023/10/11 09:20:00;;;;;;;6.70;3.33;;;;;;;;;;5030216;28;20033;-77
2023/10/11 09:22:25;;;;;;;5.65;2.67;;;;;;;;;;5032055;28;20603;-77
2023/10/11 09:25:06;;;;;;;5.95;2.70;;;;;;;;;;5045188;28;20029;-77
2023/10/11 09:27:48;;;;;;;5.95;2.58;;;;;;;;;;5048462;28;20071;-77
2023/10/11 09:30:19;;;;;;;4.72;2.63;;;;;;;;;;5021348;28;20049;-77
2023/10/11 09:32:48;;;;;;;6.25;3.28;;;;;;;;;;5045216;28;20499;-77
2023/10/11 09:35:26;;;;;;;7.18;2.75;;;;;;;;;;5020798;28;20041;-77
2023/10/11 09:37:53;;;;;;;5.00;2.47;;;;;;;;;;5050906;28;20378;-77
2023/10/11 09:40:25;;;;;;;4.30;2.50;;;;;;;;;;5006157;28;20544;-77
2023/10/11 09:42:54;;;;;;;6.97;2.92;;;;;;;;;;5052488;28;20029;-77
2023/10/11 09:45:22;;;;;;;6.22;2.72;;;;;;;;;;5034164;28;20131;-78
2023/10/11 09:47:54;;;;;;;7.32;2.80;;;;;;;;;;5047817;28;20082;-77
2023/10/11 09:50:22;;;;;;;6.78;2.83;;;;;;;;;;5044643;28;20378;-77
2023/10/11 09:52:51;;;;;;;5.70;2.80;;;;;;;;;;5023840;28;20040;-77
2023/10/11 09:55:30;;;;;;;5.55;2.67;;;;;;;;;;5044209;28;20045;-77
2023/10/11 09:58:11;;;;;;;6.93;2.95;;;;;;;;;;5039997;28;20626;-77
2023/10/11 10:00:52;;;;;;;5.85;2.22;;;;;;;;;;5040811;28;20498;-77
2023/10/11 10:03:17;;;;;;;7.10;3.17;;;;;;;;;;5039702;28;20230;-78
2023/10/11 10:06:05;;;;;;;6.00;2.67;;;;;;;;;;5056000;28;20040;-77
2023/10/11 10:08:30;;;;;;;2.88;1.98;;;;;;;;;;5027335;28;20029;-77
2023/10/11 10:10:56;;;;;;;5.05;2.70;;;;;;;;;;5032897;28;20047;-77
2023/10/11 10:13:24;;;;;;;8.90;2.50;;;;;;;;;;5046209;28;20048;-77
2023/10/11 10:15:52;;;;;;;3.92;2.00;;;;;;;;;;5034514;28;20408;-77
2023/10/11 10:18:22;;;;;;;6.68;2.63;;;;;;;;;;5028426;28;20028;-78
2023/10/11 10:21:04;;;;;;;6.32;2.90;;;;;;;;;;5029633;28;20071;-77
2023/10/11 10:23:32;;;;;;;4.47;2.30;;;;;;;;;;5045594;28;20044;-78
2023/10/11 10:26:04;;;;;;;6.45;2.80;;;;;;;;;;5046314;28;20103;-77
2023/10/11 10:28:35;;;;;;;6.28;2.58;;;;;;;;;;5036417;28;20056;-77
2023/10/11 10:31:09;;;;;;;5.43;2.33;;;;;;;;;;5041692;28;20082;-77
2023/10/11 10:33:35;;;;;;;5.78;2.38;;;;;;;;;;5041765;28;20075;-77
2023/10/11 10:36:19;;;;;;;4.07;2.70;;;;;;;;;;5028025;28;20076;-77
2023/10/11 10:41:32;;;;;;;4.82;2.60;;;;;;;;;;5034275;28;20524;-78
2023/10/11 10:44:09;;;;;;;10.63;3.20;;;;;;;;;;5037940;28;20068;-77
2023/10/11 10:46:36;;;;;;;4.55;2.92;;;;;;;;;;5043979;28;20064;-77
2023/10/11 10:49:02;;;;;;;5.15;2.67;;;;;;;;;;5044791;28;20064;-77
2023/10/11 10:51:39;;;;;;;4.68;2.78;;;;;;;;;;5042840;28;20040;-78
2023/10/11 10:54:14;;;;;;;6.10;2.60;;;;;;;;;;5005376;28;20471;-77
2023/10/11 10:56:41;;;;;;;9.65;3.15;;;;;;;;;;5042785;28;20107;-77
2023/10/11 10:59:11;;;;;;;2.92;2.15;;;;;;;;;;5048447;28;20551;-77
2023/10/11 11:01:37;;;;;;;3.72;2.47;;;;;;;;;;5044208;28;20750;-77
2023/10/11 11:04:07;;;;;;;4.78;2.53;;;;;;;;;;5042523;28;20063;-77
2023/10/11 11:06:40;;;;;;;8.05;3.15;;;;;;;;;;5035727;28;20059;-77
2023/10/11 11:09:13;;;;;;;5.53;2.38;;;;;;;;;;5030470;28;20453;-77
2023/10/11 11:11:39;;;;;;;11.65;2.97;;;;;;;;;;5044990;28;20036;-77
2023/10/11 11:14:09;;;;;;;3.90;3.28;;;;;;;;;;5026037;28;20032;-77
2023/10/11 11:16:39;;;;;;;8.25;3.05;;;;;;;;;;5045710;28;20068;-77
2023/10/11 11:19:16;;;;;;;9.77;2.87;;;;;;;;;;5031884;28;20069;-77
2023/10/11 11:21:44;;;;;;;6.53;3.00;;;;;;;;;;5023092;28;20058;-78
2023/10/11 11:24:34;;;;;;;9.27;2.53;;;;;;;;;;5031821;28;20040;-77
2023/10/11 11:27:25;;;;;;;6.18;2.25;;;;;;;;;;5051485;28;20033;-77
2023/10/11 11:29:54;;;;;;;4.43;2.55;;;;;;;;;;5002695;28;20066;-77
2023/10/11 11:32:41;;;;;;;6.07;3.28;;;;;;;;;;5046063;28;20677;-78
2023/10/11 11:35:10;;;;;;;6.50;2.85;;;;;;;;;;5046844;28;20029;-78
2023/10/11 11:37:39;;;;;;;8.60;2.88;;;;;;;;;;5040539;28;20515;-78
2023/10/11 11:40:19;;;;;;;4.25;2.28;;;;;;;;;;5029501;28;20045;-78
2023/10/11 11:42:47;;;;;;;5.43;2.42;;;;;;;;;;5004692;28;20041;-78
2023/10/11 11:45:26;;;;;;;8.02;3.10;;;;;;;;;;5042558;28;20037;-78
2023/10/11 11:47:58;;;;;;;7.65;2.85;;;;;;;;;;5050719;28;20033;-77
2023/10/11 11:50:37;;;;;;;4.93;2.50;;;;;;;;;;5041752;28;20575;-78
2023/10/11 11:53:03;;;;;;;7.25;2.65;;;;;;;;;;5034108;28;20041;-77
2023/10/11 11:55:29;;;;;;;6.38;2.70;;;;;;;;;;5036825;28;20041;-77
2023/10/11 11:57:55;;;;;;;6.05;2.60;;;;;;;;;;5045128;28;20033;-78
2023/10/11 12:02:55;;;;;;;4.70;2.70;;;;;;;;;;5048758;28;20413;-78
2023/10/11 12:05:21;;;;;;;6.90;3.13;;;;;;;;;;5036778;28;20041;-78
2023/10/11 12:07:49;;;;;;;4.50;2.47;;;;;;;;;;5036201;28;20288;-78
2023/10/11 12:10:23;;;;;;;3.45;2.47;;;;;;;;;;5050242;28;20048;-78
2023/10/11 12:12:50;;;;;;;6.15;3.03;;;;;;;;;;5048596;28;20033;-78
2023/10/11 12:15:17;;;;;;;5.90;2.83;;;;;;;;;;5033896;28;20165;-77
2023/10/11 12:17:42;;;;;;;7.13;3.10;;;;;;;;;;5045489;28;20032;-78
2023/10/11 12:20:12;;;;;;;6.30;2.88;;;;;;;;;;5046883;28;20116;-78
2023/10/11 12:22:42;;;;;;;8.05;3.20;;;;;;;;;;5046095;28;20131;-78
2023/10/11 12:25:11;;;;;;;5.40;2.65;;;;;;;;;;5049370;28;20037;-78
2023/10/11 12:27:40;;;;;;;5.10;2.70;;;;;;;;;;5048428;28;20037;-78
2023/10/11 12:30:09;;;;;;;5.88;2.92;;;;;;;;;;5048159;28;20819;-78
2023/10/11 12:32:38;;;;;;;7.70;2.92;;;;;;;;;;5018718;28;20056;-78
2023/10/11 12:35:07;;;;;;;6.00;2.85;;;;;;;;;;5011534;28;20593;-78
2023/10/11 12:37:33;;;;;;;6.03;2.83;;;;;;;;;;5051309;28;20075;-78
2023/10/11 12:39:59;;;;;;;5.47;2.67;;;;;;;;;;5035574;28;20527;-78
2023/10/11 12:42:24;;;;;;;6.18;2.33;;;;;;;;;;5053621;28;20416;-78
2023/10/11 12:44:51;;;;;;;4.63;2.67;;;;;;;;;;5026462;28;20605;-78
2023/10/11 12:47:19;;;;;;;5.03;2.90;;;;;;;;;;5045379;28;20052;-78
2023/10/11 12:49:45;;;;;;;6.93;2.63;;;;;;;;;;5039360;28;20044;-78
2023/10/11 12:52:17;;;;;;;5.80;3.05;;;;;;;;;;5052981;28;20041;-78
2023/10/11 12:54:42;;;;;;;5.00;2.63;;;;;;;;;;5048588;28;20040;-78
2023/10/11 12:57:08;;;;;;;4.85;2.78;;;;;;;;;;5043751;28;20124;-78
2023/10/11 12:59:35;;;;;;;3.63;2.53;;;;;;;;;;5007453;28;20037;-78
2023/10/11 13:02:03;;;;;;;5.68;2.70;;;;;;;;;;5050939;28;20041;-78
2023/10/11 13:04:37;;;;;;;6.43;2.63;;;;;;;;;;5047820;28;20044;-78
2023/10/11 13:07:10;;;;;;;5.55;2.75;;;;;;;;;;5044413;28;20033;-78
2023/10/11 13:09:36;;;;;;;5.68;2.72;;;;;;;;;;5055489;28;20141;-78
2023/10/11 13:12:03;;;;;;;6.05;2.80;;;;;;;;;;5021157;28;20068;-78
2023/10/11 13:14:29;;;;;;;7.15;2.75;;;;;;;;;;5050726;28;20063;-78
2023/10/11 13:17:00;;;;;;;4.68;2.40;;;;;;;;;;5051064;28;20048;-78
2023/10/11 13:19:26;;;;;;;8.50;2.92;;;;;;;;;;5045868;28;20040;-78
2023/10/11 13:21:54;;;;;;;9.00;3.22;;;;;;;;;;5037770;28;20507;-78
2023/10/11 13:24:24;;;;;;;7.50;2.90;;;;;;;;;;5040796;28;20033;-78
2023/10/11 13:26:54;;;;;;;6.03;2.90;;;;;;;;;;5026867;28;20061;-78
2023/10/11 13:29:24;;;;;;;7.03;2.25;;;;;;;;;;5047387;28;20037;-78
2023/10/11 13:31:53;;;;;;;4.82;2.60;;;;;;;;;;5031418;28;20067;-78
2023/10/11 13:34:34;;;;;;;4.47;2.70;;;;;;;;;;5052673;28;20370;-78
2023/10/11 13:37:00;;;;;;;8.80;3.47;;;;;;;;;;5045574;28;20123;-78
2023/10/11 13:39:31;;;;;;;4.70;2.80;;;;;;;;;;5047438;28;20053;-78
2023/10/11 13:42:03;;;;;;;6.60;2.78;;;;;;;;;;5034170;28;20485;-78
2023/10/11 13:44:28;;;;;;;5.85;2.65;;;;;;;;;;5051492;28;20705;-78
2023/10/11 13:46:58;;;;;;;3.88;2.60;;;;;;;;;;5052005;28;20067;-78
2023/10/11 13:49:25;;;;;;;4.00;2.90;;;;;;;;;;5016398;28;20659;-78
2023/10/11 13:51:54;;;;;;;7.00;3.13;;;;;;;;;;5047730;28;21527;-78
2023/10/11 13:57:17;;;;;;;3.78;2.53;;;;;;;;;;5046349;28;20108;-78
2023/10/11 13:59:45;;;;;;;8.02;2.90;;;;;;;;;;5039039;28;20055;-78
2023/10/11 14:05:38;;;;;;;10.30;3.35;;;;;;;;;;5033487;28;20058;-78
2023/10/11 14:07:51;;;;;;;4.78;2.75;;;;;;;;;;5037850;28;20398;-78
2023/10/11 14:10:21;;;;;;;7.05;2.53;;;;;;;;;;5000892;28;20048;-78
2023/10/11 14:12:47;;;;;;;5.55;2.80;;;;;;;;;;5031054;28;20433;-78
2023/10/11 14:15:19;;;;;;;9.80;3.25;;;;;;;;;;5046576;28;20041;-78
2023/10/11 14:17:47;;;;;;;5.10;2.70;;;;;;;;;;5050917;28;20029;-78
2023/10/11 14:20:19;;;;;;;4.72;2.97;;;;;;;;;;5049636;28;20582;-78
2023/10/11 14:22:51;;;;;;;7.47;3.20;;;;;;;;;;5037916;28;20474;-78
2023/10/11 14:25:20;;;;;;;6.88;3.13;;;;;;;;;;5047187;28;20040;-78
2023/10/11 14:27:46;;;;;;;7.55;3.03;;;;;;;;;;5052258;28;20366;-78
2023/10/11 14:30:15;;;;;;;6.88;2.80;;;;;;;;;;5050508;28;20127;-78
2023/10/11 14:32:42;;;;;;;5.40;2.72;;;;;;;;;;5047449;28;20116;-78
2023/10/11 14:35:11;;;;;;;7.95;3.13;;;;;;;;;;5034627;28;20770;-78
2023/10/11 14:37:39;;;;;;;9.65;3.35;;;;;;;;;;5028010;28;20037;-78
2023/10/11 14:40:15;;;;;;;7.70;2.97;;;;;;;;;;5044315;28;20040;-78
2023/10/11 14:42:41;;;;;;;5.25;2.60;;;;;;;;;;5041351;28;20508;-78
2023/10/11 14:45:11;;;;;;;6.95;3.10;;;;;;;;;;5028073;28;20592;-78
2023/10/11 14:47:45;;;;;;;6.70;2.83;;;;;;;;;;5015827;28;20127;-78
2023/10/11 14:50:14;;;;;;;6.80;2.45;;;;;;;;;;5044932;28;20274;-78
2023/10/11 14:52:40;;;;;;;7.05;2.80;;;;;;;;;;5044050;28;20496;-78
2023/10/11 14:55:08;;;;;;;8.38;3.50;;;;;;;;;;5039770;28;20061;-78
2023/10/11 14:57:33;;;;;;;6.43;2.92;;;;;;;;;;5037127;28;20029;-78
2023/10/11 14:59:59;;;;;;;7.43;2.85;;;;;;;;;;5016731;28;20513;-78
2023/10/11 15:02:24;;;;;;;7.30;2.50;;;;;;;;;;5029754;28;20112;-78
2023/10/11 15:04:56;;;;;;;7.75;2.78;;;;;;;;;;5045609;28;20037;-78
2023/10/11 15:07:21;;;;;;;5.35;2.63;;;;;;;;;;5045602;28;20033;-78
2023/10/11 15:09:47;;;;;;;7.10;2.95;;;;;;;;;;5027224;28;20033;-78
2023/10/11 15:12:13;;;;;;;8.27;3.28;;;;;;;;;;5046275;28;20040;-78
2023/10/11 15:14:39;;;;;;;5.30;2.72;;;;;;;;;;5029209;28;20060;-78
2023/10/11 15:17:05;;;;;;;6.50;2.92;;;;;;;;;;5051853;28;20037;-78
2023/10/11 15:19:30;;;;;;;4.90;2.42;;;;;;;;;;5028450;28;20044;-78
2023/10/11 15:21:56;;;;;;;9.15;3.30;;;;;;;;;;5017422;28;20036;-78
2023/10/11 15:24:23;;;;;;;4.72;2.30;;;;;;;;;;5048644;28;20033;-78
2023/10/11 15:26:51;;;;;;;7.38;3.10;;;;;;;;;;5053506;28;20131;-78
2023/10/11 15:29:17;;;;;;;6.07;2.83;;;;;;;;;;5003055;28;20041;-78
2023/10/11 15:31:42;;;;;;;7.25;3.30;;;;;;;;;;5049563;28;20078;-78
2023/10/11 15:34:12;;;;;;;6.68;2.90;;;;;;;;;;5044645;28;20122;-78
2023/10/11 15:36:40;;;;;;;5.72;2.70;;;;;;;;;;5032549;28;20051;-78
2023/10/11 15:39:10;;;;;;;6.30;3.17;;;;;;;;;;5030131;28;20040;-78
2023/10/11 15:41:36;;;;;;;5.57;2.75;;;;;;;;;;5030423;28;20074;-78
2023/10/11 15:44:02;;;;;;;4.78;2.80;;;;;;;;;;5040566;28;20124;-80
2023/10/11 15:46:27;;;;;;;4.60;2.50;;;;;;;;;;5041536;28;20434;-79
2023/10/11 15:48:54;;;;;;;5.63;2.65;;;;;;;;;;5042131;28;20036;-82
2023/10/11 15:51:21;;;;;;;5.53;2.80;;;;;;;;;;5038039;28;20102;-82
2023/10/11 15:53:46;;;;;;;5.97;2.80;;;;;;;;;;5038076;28;20444;-80
2023/10/11 15:56:14;;;;;;;7.30;2.88;;;;;;;;;;5026834;28;20049;-79
2023/10/11 15:58:39;;;;;;;5.90;2.83;;;;;;;;;;5042922;28;20519;-78
2023/10/11 16:01:06;;;;;;;6.07;2.95;;;;;;;;;;5028607;28;20037;-79
2023/10/11 16:03:39;;;;;;;8.77;3.10;;;;;;;;;;5019425;28;20036;-79